Time;durP1;ratioP1;P1;durP2;ratioP2;P2;SDS_P1;SDS_P2;PMS_P1;PMS_P2;Temp;Humidity;BMP_temperature;BMP_pressure;BME280_temperature;BME280_humidity;BME280_pressure;Samples;Min_cycle;Max_cycle;Signal;HPM_P1;HPM_P2
2022/01/06 07:28:48;;;;;;;;;;;20.40;51.50;;;;;;3067994;29;19937;-93
2022/01/06 07:30:21;;;;;;;;;;;20.40;51.50;;;;;;3067865;29;19927;-91
2022/01/06 07:31:52;;;;;;;;;;;20.40;51.40;;;;;;3063378;29;19930;-90
2022/01/06 07:45:24;;;;;;;;;;;20.70;53.10;;;;;;3063500;28;19934;-92
2022/01/06 07:47:04;;;;;;;;;;;20.80;52.70;;;;;;3054028;28;19930;-91
2022/01/06 07:48:48;;;;;;;;;;;20.80;52.70;;;;;;3064088;29;20217;-91
2022/01/06 07:50:20;;;;;;;;;;;20.90;52.60;;;;;;3063772;29;19933;-89
2022/01/06 07:51:55;;;;;;;;;;;20.90;52.80;;;;;;3064581;28;19927;-92
2022/01/06 07:53:27;;;;;;;;;;;21.00;53.20;;;;;;3052451;29;20060;-92
2022/01/06 07:54:59;;;;;;;;;;;21.00;52.70;;;;;;3052080;29;20018;-89
2022/01/06 07:56:31;;;;;;;;;;;21.00;52.70;;;;;;3051826;29;19935;-93
2022/01/06 07:58:03;;;;;;;;;;;21.00;52.90;;;;;;3051364;28;19927;-92
2022/01/06 07:59:42;;;;;;;;;;;21.10;53.40;;;;;;3054415;29;19934;-92
2022/01/06 08:03:17;;;;;;;;;;;21.20;55.40;;;;;;3055341;29;20551;-93
2022/01/06 08:06:39;;;;;;;;;;;21.40;52.80;;;;;;3048381;29;19933;-90
2022/01/06 08:08:11;;;;;;;;;;;21.30;52.80;;;;;;3053006;29;19971;-92
2022/01/06 08:09:45;;;;;;;;;;;21.40;52.90;;;;;;3054525;29;19927;-94
2022/01/06 08:11:20;;;;;;;;;;;21.30;51.40;;;;;;3054532;29;20042;-93
2022/01/06 08:12:52;;;;;;;;;;;21.30;50.30;;;;;;3051652;29;20311;-93
2022/01/06 08:14:24;;;;;;;;;;;21.30;50.00;;;;;;3052127;29;19933;-92
2022/01/06 08:15:56;;;;;;;;;;;21.30;50.40;;;;;;3051614;29;19927;-92
2022/01/06 08:17:29;;;;;;;;;;;21.40;49.90;;;;;;3049771;29;19935;-92
2022/01/06 08:19:11;;;;;;;;;;;21.30;49.50;;;;;;3056999;29;19935;-93
2022/01/06 08:20:44;;;;;;;;;;;21.30;49.80;;;;;;3054550;29;19927;-93
2022/01/06 09:53:56;;;;;;;;;;;22.40;49.30;;;;;;3059544;29;19956;-91
2022/01/06 09:55:28;;;;;;;;;;;22.40;49.00;;;;;;3060822;29;19994;-92
2022/01/06 09:59:04;;;;;;;;;;;22.50;48.70;;;;;;3060280;29;19930;-92
2022/01/06 10:00:36;;;;;;;;;;;22.50;48.50;;;;;;3059542;29;19966;-89
2022/01/06 10:02:13;;;;;;;;;;;22.50;48.50;;;;;;3060254;29;20512;-92
2022/01/06 10:03:48;;;;;;;;;;;22.50;48.50;;;;;;3061858;29;20001;-89
2022/01/06 10:05:20;;;;;;;;;;;22.50;48.60;;;;;;3065459;28;19918;-93
2022/01/06 10:06:58;;;;;;;;;;;22.50;48.80;;;;;;3063071;28;20055;-91
2022/01/06 10:08:30;;;;;;;;;;;22.50;48.90;;;;;;3062623;29;19986;-90
2022/01/06 10:10:06;;;;;;;;;;;22.50;48.70;;;;;;3063558;29;20328;-90
2022/01/06 10:11:40;;;;;;;;;;;22.50;48.70;;;;;;3067444;28;19930;-92
2022/01/06 10:13:15;;;;;;;;;;;22.50;48.70;;;;;;3075041;28;19978;-94
2022/01/06 10:14:49;;;;;;;;;;;22.60;48.70;;;;;;3074843;28;19977;-92
2022/01/06 10:16:21;;;;;;;;;;;22.60;48.40;;;;;;3073514;28;20025;-90
2022/01/06 10:17:55;;;;;;;;;;;22.60;48.50;;;;;;3072998;28;19926;-91
2022/01/06 10:19:27;;;;;;;;;;;22.70;48.30;;;;;;3074575;28;19962;-90
2022/01/06 10:20:59;;;;;;;;;;;22.70;48.30;;;;;;3074566;28;20450;-89
2022/01/06 10:22:31;;;;;;;;;;;22.70;48.40;;;;;;3074045;28;19927;-88
2022/01/06 10:24:04;;;;;;;;;;;22.70;48.10;;;;;;3063344;28;20007;-90
2022/01/06 10:25:38;;;;;;;;;;;22.70;48.10;;;;;;3062483;29;19982;-89
2022/01/06 10:27:10;;;;;;;;;;;22.60;48.10;;;;;;3061537;28;19927;-91
2022/01/06 10:28:41;;;;;;;;;;;22.70;48.20;;;;;;3062807;29;19974;-93
2022/01/06 10:30:14;;;;;;;;;;;22.60;48.20;;;;;;3060966;29;19993;-91
2022/01/06 10:31:46;;;;;;;;;;;22.60;48.20;;;;;;3061347;28;19927;-92
2022/01/06 10:33:18;;;;;;;;;;;22.60;48.10;;;;;;3061863;29;19966;-91
2022/01/06 10:34:50;;;;;;;;;;;22.60;48.20;;;;;;3062885;29;19927;-89
2022/01/06 10:36:27;;;;;;;;;;;22.60;48.50;;;;;;3063249;29;19981;-90
2022/01/06 10:38:00;;;;;;;;;;;22.60;48.90;;;;;;3063949;28;19927;-91
2022/01/06 10:39:44;;;;;;;;;;;22.50;48.50;;;;;;3064581;29;20484;-89
2022/01/06 10:41:17;;;;;;;;;;;22.50;48.40;;;;;;3064243;29;20327;-91
2022/01/06 10:42:55;;;;;;;;;;;22.50;48.30;;;;;;3063221;28;19951;-90
2022/01/06 10:44:26;;;;;;;;;;;22.50;48.40;;;;;;3063682;29;19978;-91
2022/01/06 10:46:00;;;;;;;;;;;22.50;48.40;;;;;;3062779;29;19935;-90
2022/01/06 10:47:32;;;;;;;;;;;22.50;48.40;;;;;;3063432;28;20394;-91
2022/01/06 10:49:04;;;;;;;;;;;22.50;48.40;;;;;;3063529;29;19950;-90
2022/01/06 10:50:52;;;;;;;;;;;22.50;49.00;;;;;;3063782;29;19927;-90
2022/01/06 10:52:27;;;;;;;;;;;22.50;48.30;;;;;;3063525;28;19927;-91
2022/01/06 10:53:59;;;;;;;;;;;22.40;48.00;;;;;;3064141;29;20024;-90
2022/01/06 10:55:33;;;;;;;;;;;22.40;48.10;;;;;;3064469;29;20018;-92
2022/01/06 10:57:07;;;;;;;;;;;22.40;48.30;;;;;;3063422;28;20395;-91
2022/01/06 10:58:43;;;;;;;;;;;22.40;48.30;;;;;;3063896;29;19927;-91
2022/01/06 11:00:20;;;;;;;;;;;22.40;48.30;;;;;;3063362;29;19931;-92
2022/01/06 11:01:52;;;;;;;;;;;22.40;48.90;;;;;;3063924;28;19958;-91
2022/01/06 11:03:44;;;;;;;;;;;22.40;48.70;;;;;;3064056;29;20295;-91
2022/01/06 11:05:21;;;;;;;;;;;22.40;48.70;;;;;;3065400;29;19934;-91
2022/01/06 11:06:54;;;;;;;;;;;22.30;48.30;;;;;;3062758;28;19937;-91
2022/01/06 11:08:27;;;;;;;;;;;22.40;48.20;;;;;;3064034;29;19933;-91
2022/01/06 11:09:59;;;;;;;;;;;22.40;48.20;;;;;;3064139;29;20310;-91
2022/01/06 11:13:38;;;;;;;;;;;22.30;48.10;;;;;;3063595;29;19966;-90
2022/01/06 11:15:10;;;;;;;;;;;22.30;48.10;;;;;;3063390;29;20094;-91
2022/01/06 11:16:48;;;;;;;;;;;22.30;48.20;;;;;;3062861;29;19934;-91
2022/01/06 11:18:20;;;;;;;;;;;22.30;48.10;;;;;;3064251;29;20288;-90
2022/01/06 11:19:59;;;;;;;;;;;22.30;48.10;;;;;;3063553;29;20327;-90
2022/01/06 11:21:34;;;;;;;;;;;22.30;48.10;;;;;;3064070;29;20021;-90
2022/01/06 11:23:06;;;;;;;;;;;22.30;48.10;;;;;;3063522;29;19933;-90
2022/01/06 11:24:39;;;;;;;;;;;22.30;48.00;;;;;;3063654;29;20013;-89
2022/01/06 11:26:11;;;;;;;;;;;22.20;48.00;;;;;;3063841;29;20453;-89
2022/01/06 11:27:43;;;;;;;;;;;22.20;48.00;;;;;;3062837;28;19934;-91
2022/01/06 11:29:25;;;;;;;;;;;22.20;48.00;;;;;;3063560;29;20407;-90
2022/01/06 11:30:56;;;;;;;;;;;22.20;48.00;;;;;;3065017;29;19994;-89
2022/01/06 11:32:28;;;;;;;;;;;22.20;48.00;;;;;;3064944;28;19954;-90
2022/01/06 11:34:10;;;;;;;;;;;22.20;48.00;;;;;;3066471;29;19950;-86
2022/01/06 11:35:48;;;;;;;;;;;22.20;48.00;;;;;;3065436;29;19927;-92
2022/01/06 11:37:19;;;;;;;;;;;22.20;48.20;;;;;;3065027;28;19927;-88
2022/01/06 11:38:52;;;;;;;;;;;22.30;48.40;;;;;;3065242;29;19978;-89
2022/01/06 11:40:46;;;;;;;;;;;22.30;48.20;;;;;;3065160;29;19934;-92
2022/01/06 11:44:24;;;;;;;;;;;22.20;48.20;;;;;;3041477;29;19972;-89
2022/01/06 11:46:01;;;;;;;;;;;22.20;48.20;;;;;;3055834;29;19950;-88
2022/01/06 11:47:33;;;;;;;;;;;22.20;48.00;;;;;;3053211;28;19967;-89
2022/01/06 11:49:05;;;;;;;;;;;22.20;48.00;;;;;;3053872;29;19931;-89
2022/01/06 11:50:37;;;;;;;;;;;22.20;47.90;;;;;;3062545;29;20018;-90
2022/01/06 11:52:10;;;;;;;;;;;22.10;47.90;;;;;;3065220;28;19930;-89
2022/01/06 11:53:42;;;;;;;;;;;22.10;47.90;;;;;;3066136;29;19946;-89
2022/01/06 11:55:14;;;;;;;;;;;22.10;48.50;;;;;;3065574;29;20049;-89
2022/01/06 11:56:47;;;;;;;;;;;22.10;48.00;;;;;;3064093;28;20009;-89
2022/01/06 11:58:21;;;;;;;;;;;22.10;48.00;;;;;;3065176;29;19927;-90
2022/01/06 11:59:54;;;;;;;;;;;22.10;48.00;;;;;;3066161;29;20375;-89
2022/01/06 12:01:31;;;;;;;;;;;22.10;48.00;;;;;;3064734;28;19930;-89
2022/01/06 12:03:03;;;;;;;;;;;22.10;48.00;;;;;;3064743;28;19927;-90
2022/01/06 12:04:38;;;;;;;;;;;22.10;47.90;;;;;;3065885;29;20033;-89
2022/01/06 12:06:28;;;;;;;;;;;22.00;47.90;;;;;;3065424;29;19933;-89
2022/01/06 12:08:00;;;;;;;;;;;22.00;48.00;;;;;;3065522;28;19927;-89
2022/01/06 12:09:37;;;;;;;;;;;22.00;48.10;;;;;;3065794;29;19926;-89
2022/01/06 12:11:23;;;;;;;;;;;22.00;48.10;;;;;;3064935;29;19926;-90
2022/01/06 12:12:59;;;;;;;;;;;22.00;48.20;;;;;;3064637;28;19931;-89
2022/01/06 12:14:33;;;;;;;;;;;22.00;48.20;;;;;;3066330;29;19937;-88
2022/01/06 12:16:06;;;;;;;;;;;22.00;48.30;;;;;;3063926;28;19970;-89
2022/01/06 12:17:44;;;;;;;;;;;22.00;48.40;;;;;;3065042;28;19961;-90
2022/01/06 12:19:16;;;;;;;;;;;22.00;48.40;;;;;;3065079;29;19935;-89
2022/01/06 12:20:48;;;;;;;;;;;22.00;48.40;;;;;;3065511;29;19926;-88
2022/01/06 12:22:25;;;;;;;;;;;22.00;48.40;;;;;;3064342;28;19927;-90
2022/01/06 12:24:04;;;;;;;;;;;21.90;48.40;;;;;;3064580;29;19931;-89
2022/01/06 12:25:35;;;;;;;;;;;21.90;48.40;;;;;;3065556;29;19937;-90
2022/01/06 12:27:09;;;;;;;;;;;22.00;48.50;;;;;;3059306;28;20009;-89
2022/01/06 12:28:47;;;;;;;;;;;21.90;48.40;;;;;;3065488;29;20351;-90
2022/01/06 12:30:32;;;;;;;;;;;21.90;48.50;;;;;;3064817;29;19927;-89
2022/01/06 12:32:11;;;;;;;;;;;21.90;48.50;;;;;;3065810;28;20455;-92
2022/01/06 12:33:44;;;;;;;;;;;21.90;48.50;;;;;;3067402;29;19927;-92
2022/01/06 12:35:16;;;;;;;;;;;21.90;48.40;;;;;;3067946;29;19927;-93
2022/01/06 12:36:50;;;;;;;;;;;21.80;48.40;;;;;;3064916;28;20343;-93
2022/01/06 12:38:26;;;;;;;;;;;21.90;48.60;;;;;;3067713;29;19927;-93
2022/01/06 12:39:59;;;;;;;;;;;21.90;48.50;;;;;;3068362;29;19927;-90
2022/01/06 12:41:35;;;;;;;;;;;21.90;48.60;;;;;;3068909;29;19927;-89
2022/01/06 12:43:19;;;;;;;;;;;21.90;48.70;;;;;;3045766;29;19963;-90
2022/01/06 12:44:51;;;;;;;;;;;21.90;49.10;;;;;;3060235;29;19966;-88
2022/01/06 12:46:24;;;;;;;;;;;22.10;49.70;;;;;;3063743;29;19938;-89
2022/01/06 14:17:37;;;;;;;;;;;22.00;51.20;;;;;;3696159;22;5338161;-91
2022/01/06 14:19:09;;;;;;;;;;;22.00;50.70;;;;;;3925674;22;19918;-91
2022/01/06 14:20:44;;;;;;;;;;;22.00;50.10;;;;;;3932667;22;19922;-90
2022/01/06 14:22:17;;;;;;;;;;;22.10;51.20;;;;;;3908036;22;19923;-93
2022/01/06 14:23:52;;;;;;;;;;;22.10;49.70;;;;;;3895747;22;19919;-94
2022/01/06 14:25:24;;;;;;;;;;;22.10;49.30;;;;;;3894341;22;19920;-92
2022/01/06 14:26:56;;;;;;;;;;;22.10;49.20;;;;;;3894280;22;19986;-92
2022/01/06 14:28:28;;;;;;;;;;;22.20;49.20;;;;;;3899409;22;19911;-93
2022/01/06 14:30:00;;;;;;;;;;;22.20;49.80;;;;;;3905299;22;19919;-93
2022/01/06 14:31:34;;;;;;;;;;;22.20;49.20;;;;;;3897472;22;19920;-92
2022/01/06 14:33:08;;;;;;;;;;;22.30;49.10;;;;;;3894281;22;19986;-92
2022/01/06 14:34:39;;;;;;;;;;;22.30;49.10;;;;;;3896042;22;20386;-91
2022/01/06 14:36:12;;;;;;;;;;;22.40;49.60;;;;;;3898002;22;19919;-95
2022/01/06 14:37:53;;;;;;;;;;;22.40;49.60;;;;;;3899217;22;19923;-94
2022/01/06 14:39:25;;;;;;;;;;;22.40;49.00;;;;;;3897959;22;19930;-90
2022/01/06 14:40:57;;;;;;;;;;;22.30;48.90;;;;;;3900354;22;19923;-91
2022/01/06 14:42:29;;;;;;;;;;;22.30;49.20;;;;;;3895004;22;19919;-92
2022/01/06 14:44:01;;;;;;;;;;;22.40;49.60;;;;;;3893575;22;19926;-91
2022/01/06 14:45:33;;;;;;;;;;;22.40;49.20;;;;;;3894165;22;20224;-92
2022/01/06 14:47:05;;;;;;;;;;;22.40;49.00;;;;;;3892970;22;19950;-90
